createdAt,value
2022-08-25T00:00:26.100Z,21.17
2022-08-25T00:02:59.289Z,21.24
2022-08-25T00:05:33.397Z,21.29
2022-08-25T00:08:06.529Z,21.26
2022-08-25T00:10:39.994Z,21.35
2022-08-25T00:13:12.920Z,21.33
2022-08-25T00:15:45.877Z,21.24
2022-08-25T00:18:19.957Z,21.21
2022-08-25T00:20:51.789Z,21.12
2022-08-25T00:23:23.310Z,21.03
2022-08-25T00:25:55.542Z,21.00
2022-08-25T00:28:27.421Z,21.02
2022-08-25T00:31:01.707Z,21.06
2022-08-25T00:33:35.310Z,21.13
2022-08-25T00:36:07.392Z,21.15
2022-08-25T00:38:38.856Z,21.10
2022-08-25T00:41:11.694Z,21.12
2022-08-25T00:43:52.098Z,21.09
2022-08-25T00:46:26.073Z,21.17
2022-08-25T00:49:01.332Z,21.10
2022-08-25T00:51:38.473Z,21.07
2022-08-25T00:54:12.123Z,21.10
2022-08-25T00:56:44.309Z,21.22
2022-08-25T00:59:17.903Z,21.30
2022-08-25T01:01:49.838Z,21.32
2022-08-25T01:04:22.528Z,21.48
2022-08-25T01:06:54.308Z,21.50
2022-08-25T01:09:26.080Z,21.40
2022-08-25T01:11:57.471Z,21.39
2022-08-25T01:14:32.485Z,21.36
2022-08-25T01:17:04.771Z,21.50
2022-08-25T01:19:36.355Z,21.39
2022-08-25T01:22:08.051Z,21.24
2022-08-25T01:24:43.716Z,21.29
2022-08-25T01:27:15.505Z,21.41
2022-08-25T01:29:47.666Z,21.38
2022-08-25T01:32:19.324Z,21.35
2022-08-25T01:34:51.869Z,21.27
2022-08-25T01:37:23.795Z,21.14
2022-08-25T01:39:55.405Z,21.18
2022-08-25T01:42:59.252Z,21.18
2022-08-25T01:45:30.810Z,21.14
2022-08-25T01:48:02.648Z,21.23
2022-08-25T01:50:34.723Z,21.41
2022-08-25T01:53:09.764Z,21.41
2022-08-25T01:55:54.131Z,21.43
2022-08-25T01:58:29.638Z,21.45
2022-08-25T02:01:03.942Z,21.44
2022-08-25T02:03:38.387Z,21.40
2022-08-25T02:06:14.855Z,21.42
2022-08-25T02:08:47.287Z,21.44
2022-08-25T02:11:20.362Z,21.35
2022-08-25T02:13:52.733Z,21.42
2022-08-25T02:16:29.458Z,21.44
2022-08-25T02:19:01.159Z,21.46
2022-08-25T02:21:32.905Z,21.52
2022-08-25T02:24:05.524Z,21.66
2022-08-25T02:26:37.697Z,21.61
2022-08-25T02:29:10.816Z,21.59
2022-08-25T02:31:42.308Z,21.66
2022-08-25T02:34:15.564Z,21.60
2022-08-25T02:36:47.146Z,21.64
2022-08-25T02:39:18.846Z,21.58
2022-08-25T02:41:50.634Z,21.50
2022-08-25T02:44:22.011Z,21.45
2022-08-25T02:46:53.337Z,21.46
2022-08-25T02:49:24.788Z,21.56
2022-08-25T02:51:56.614Z,21.54
2022-08-25T02:54:29.190Z,21.59
2022-08-25T02:57:00.576Z,21.49
2022-08-25T02:59:32.242Z,21.43
2022-08-25T03:02:04.869Z,21.46
2022-08-25T03:04:36.797Z,21.59
2022-08-25T03:07:08.512Z,21.52
2022-08-25T03:09:44.563Z,21.53
2022-08-25T03:12:16.027Z,21.48
2022-08-25T03:14:47.660Z,21.56
2022-08-25T03:17:19.315Z,21.47
2022-08-25T03:19:50.691Z,21.54
2022-08-25T03:22:22.248Z,21.60
2022-08-25T03:25:14.032Z,21.56
2022-08-25T03:27:45.626Z,21.60
2022-08-25T03:30:17.170Z,21.51
2022-08-25T03:32:56.805Z,21.47
2022-08-25T03:35:34.573Z,21.61
2022-08-25T03:38:13.816Z,21.52
2022-08-25T03:40:51.448Z,21.57
2022-08-25T03:43:29.675Z,21.62
2022-08-25T03:46:01.192Z,21.71
2022-08-25T03:48:33.220Z,21.72
2022-08-25T03:51:04.848Z,21.65
2022-08-25T03:53:36.131Z,21.57
2022-08-25T03:56:08.501Z,21.53
2022-08-25T03:58:39.870Z,21.52
2022-08-25T04:01:11.619Z,21.55
2022-08-25T04:03:43.611Z,21.65
2022-08-25T04:06:16.991Z,21.79
2022-08-25T04:08:49.134Z,21.69
2022-08-25T04:11:23.073Z,21.74
2022-08-25T04:13:57.363Z,21.72
2022-08-25T04:16:28.002Z,21.70
2022-08-25T04:19:00.849Z,21.86
2022-08-25T04:21:32.894Z,21.90
2022-08-25T04:24:04.929Z,21.80
2022-08-25T04:26:40.666Z,21.80
2022-08-25T04:29:13.987Z,21.80
2022-08-25T04:31:48.685Z,21.88
2022-08-25T04:34:30.108Z,21.92
2022-08-25T04:37:05.822Z,22.07
2022-08-25T04:39:37.501Z,22.02
2022-08-25T04:42:09.329Z,21.95
2022-08-25T04:44:42.210Z,21.97
2022-08-25T04:47:13.679Z,22.09
2022-08-25T04:49:45.181Z,21.97
2022-08-25T04:52:16.530Z,21.85
2022-08-25T04:54:48.245Z,21.87
2022-08-25T04:57:19.750Z,21.84
2022-08-25T04:59:51.606Z,22.00
2022-08-25T05:02:23.004Z,22.13
2022-08-25T05:04:56.642Z,22.08
2022-08-25T05:07:28.944Z,22.16
2022-08-25T05:10:02.310Z,22.16
2022-08-25T05:12:34.711Z,22.19
2022-08-25T05:15:22.055Z,22.15
2022-08-25T05:17:56.008Z,22.17
2022-08-25T05:20:31.369Z,22.18
2022-08-25T05:23:02.782Z,22.38
2022-08-25T05:25:34.785Z,22.45
2022-08-25T05:28:06.702Z,22.53
2022-08-25T05:30:41.066Z,22.78
2022-08-25T05:33:13.637Z,22.93
2022-08-25T05:35:45.333Z,23.18
2022-08-25T05:38:16.716Z,23.46
2022-08-25T05:40:48.911Z,23.72
2022-08-25T05:43:20.384Z,24.03
2022-08-25T05:45:52.074Z,24.31
2022-08-25T05:48:23.498Z,24.66
2022-08-25T05:51:00.144Z,24.96
2022-08-25T05:53:33.760Z,25.00
2022-08-25T05:56:06.065Z,25.00
2022-08-25T05:58:38.188Z,25.11
2022-08-25T06:01:28.488Z,25.08
2022-08-25T06:04:00.432Z,25.02
2022-08-25T06:06:32.802Z,24.94
2022-08-25T06:09:08.945Z,24.79
2022-08-25T06:11:43.342Z,24.76
2022-08-25T06:14:17.049Z,24.56
2022-08-25T06:16:49.171Z,24.51
2022-08-25T06:19:21.556Z,24.68
2022-08-25T06:21:54.657Z,24.83
2022-08-25T06:24:27.661Z,24.81
2022-08-25T06:27:01.075Z,24.91
2022-08-25T06:29:32.859Z,24.81
2022-08-25T06:32:06.301Z,24.87
2022-08-25T06:34:37.916Z,24.89
2022-08-25T06:37:10.677Z,24.83
2022-08-25T06:39:42.507Z,24.83
2022-08-25T06:42:14.641Z,24.82
2022-08-25T06:44:48.548Z,24.71
2022-08-25T06:47:21.221Z,24.59
2022-08-25T06:50:06.199Z,24.55
2022-08-25T06:52:45.456Z,24.56
2022-08-25T06:55:24.056Z,24.61
2022-08-25T06:58:05.430Z,24.52
2022-08-25T07:00:45.617Z,24.58
2022-08-25T07:06:03.510Z,24.80
2022-08-25T07:08:41.193Z,24.84
2022-08-25T07:11:16.445Z,24.88
2022-08-25T07:13:49.309Z,24.88
2022-08-25T07:16:22.702Z,24.72
2022-08-25T07:19:00.182Z,24.83
2022-08-25T07:21:35.969Z,25.05
2022-08-25T07:24:11.471Z,25.15
2022-08-25T07:26:44.447Z,25.14
2022-08-25T07:29:19.439Z,25.25
2022-08-25T07:31:51.388Z,25.32
2022-08-25T07:34:40.200Z,25.39
2022-08-25T07:37:27.544Z,25.46
2022-08-25T07:40:13.723Z,25.49
2022-08-25T07:42:45.537Z,25.60
2022-08-25T07:45:20.766Z,25.64
2022-08-25T07:47:54.170Z,25.63
2022-08-25T07:50:27.832Z,25.73
2022-08-25T07:53:02.943Z,25.77
2022-08-25T07:55:36.829Z,25.66
2022-08-25T07:58:10.181Z,25.69
2022-08-25T08:00:45.144Z,25.83
2022-08-25T08:03:35.295Z,26.23
2022-08-25T08:06:12.578Z,26.83
2022-08-25T08:08:46.240Z,27.14
2022-08-25T08:11:21.517Z,27.47
2022-08-25T08:13:58.958Z,27.81
2022-08-25T08:16:32.265Z,28.00
2022-08-25T08:19:05.529Z,28.00
2022-08-25T08:21:38.767Z,28.12
2022-08-25T08:24:25.018Z,28.31
2022-08-25T08:27:03.102Z,28.48
2022-08-25T08:29:35.121Z,28.47
2022-08-25T08:32:08.628Z,28.42
2022-08-25T08:34:41.180Z,28.18
2022-08-25T08:37:12.763Z,28.16
2022-08-25T08:39:44.452Z,28.26
2022-08-25T08:42:26.386Z,28.33
2022-08-25T08:45:19.417Z,28.44
2022-08-25T08:48:12.843Z,28.50
2022-08-25T08:50:58.024Z,28.54
2022-08-25T08:53:37.268Z,28.58
2022-08-25T08:56:16.180Z,28.62
2022-08-25T08:58:52.235Z,28.56
2022-08-25T09:01:29.560Z,28.55
2022-08-25T09:04:07.911Z,28.53
2022-08-25T09:06:43.934Z,28.52
2022-08-25T09:09:22.159Z,28.57
2022-08-25T09:12:06.427Z,28.57
2022-08-25T09:14:53.662Z,28.53
2022-08-25T09:17:42.871Z,28.62
2022-08-25T09:20:41.490Z,28.69
2022-08-25T09:23:26.327Z,28.83
2022-08-25T09:26:09.450Z,28.98
2022-08-25T09:28:43.609Z,28.92
2022-08-25T09:31:26.429Z,28.83
2022-08-25T09:34:03.461Z,28.75
2022-08-25T09:36:37.867Z,28.93
2022-08-25T09:39:10.548Z,29.03
2022-08-25T09:41:51.580Z,29.14
2022-08-25T09:44:26.738Z,29.02
2022-08-25T09:47:04.511Z,29.07
2022-08-25T09:49:40.517Z,29.07
2022-08-25T09:52:26.849Z,28.94
2022-08-25T09:54:59.707Z,28.94
2022-08-25T09:57:37.530Z,29.01
2022-08-25T10:00:23.146Z,29.04
2022-08-25T10:03:09.466Z,28.99
2022-08-25T10:05:58.372Z,29.09
2022-08-25T10:08:37.317Z,29.17
2022-08-25T10:11:14.881Z,29.27
2022-08-25T10:13:51.542Z,29.31
2022-08-25T10:16:36.486Z,29.24
2022-08-25T10:19:12.543Z,29.11
2022-08-25T10:21:45.372Z,29.14
2022-08-25T10:24:17.184Z,29.28
2022-08-25T10:27:02.758Z,29.39
2022-08-25T10:29:52.873Z,29.42
2022-08-25T10:32:32.091Z,29.42
2022-08-25T10:35:11.999Z,29.24
2022-08-25T10:37:54.799Z,29.16
2022-08-25T10:40:37.706Z,29.10
2022-08-25T10:43:16.678Z,29.25
2022-08-25T10:45:58.187Z,29.35
2022-08-25T10:48:57.922Z,29.35
2022-08-25T10:51:41.396Z,29.46
2022-08-25T10:54:26.162Z,29.49
2022-08-25T10:57:08.082Z,29.61
2022-08-25T11:00:14.295Z,29.70
2022-08-25T11:03:11.504Z,29.63
2022-08-25T11:05:49.700Z,29.79
2022-08-25T11:08:32.781Z,29.89
2022-08-25T11:11:11.739Z,29.85
2022-08-25T11:13:49.381Z,29.88
2022-08-25T11:16:26.596Z,29.81
2022-08-25T11:19:05.613Z,29.93
2022-08-25T11:21:45.935Z,30.05
2022-08-25T11:24:33.930Z,30.10
2022-08-25T11:27:13.715Z,30.15
2022-08-25T11:29:50.865Z,30.16
2022-08-25T11:32:25.170Z,30.16
2022-08-25T11:34:56.924Z,30.19
2022-08-25T11:37:31.856Z,30.28
2022-08-25T11:40:28.979Z,30.34
2022-08-25T11:43:09.920Z,30.40
2022-08-25T11:45:56.161Z,30.39
2022-08-25T11:48:38.474Z,30.36
2022-08-25T11:51:12.673Z,30.32
2022-08-25T11:53:45.567Z,30.23
2022-08-25T11:56:35.491Z,30.24
2022-08-25T11:59:07.075Z,30.35
2022-08-25T12:02:11.713Z,30.36
2022-08-25T12:04:45.739Z,30.28
2022-08-25T12:07:28.213Z,30.33
2022-08-25T12:10:23.986Z,30.42
2022-08-25T12:13:25.464Z,30.41
2022-08-25T12:16:04.229Z,30.37
2022-08-25T12:18:50.525Z,30.41
2022-08-25T12:21:35.322Z,30.62
2022-08-25T12:24:15.980Z,30.83
2022-08-25T12:26:56.725Z,30.97
2022-08-25T12:29:42.879Z,30.92
2022-08-25T12:32:50.735Z,30.84
2022-08-25T12:35:31.043Z,30.83
2022-08-25T12:38:07.377Z,30.86
2022-08-25T12:40:55.558Z,31.01
2022-08-25T12:43:33.285Z,31.09
2022-08-25T12:46:36.673Z,31.12
2022-08-25T12:49:30.810Z,31.15
2022-08-25T12:52:06.486Z,31.15
2022-08-25T12:54:48.963Z,31.19
2022-08-25T12:57:41.287Z,31.24
2022-08-25T13:03:26.755Z,31.39
2022-08-25T13:06:20.412Z,31.45
2022-08-25T13:09:33.159Z,31.53
2022-08-25T13:12:11.175Z,31.66
2022-08-25T13:14:44.415Z,31.55
2022-08-25T13:17:29.426Z,31.56
2022-08-25T13:20:19.198Z,31.69
2022-08-25T13:22:57.569Z,31.73
2022-08-25T13:25:33.400Z,31.81
2022-08-25T13:28:11.176Z,31.76
2022-08-25T13:30:42.747Z,31.78
2022-08-25T13:33:23.747Z,31.86
2022-08-25T13:36:16.746Z,31.70
2022-08-25T13:38:51.243Z,31.68
2022-08-25T13:41:29.238Z,31.78
2022-08-25T13:44:02.710Z,31.76
2022-08-25T13:46:35.437Z,31.74
2022-08-25T13:49:09.399Z,31.59
2022-08-25T13:51:53.021Z,31.78
2022-08-25T13:54:31.448Z,31.85
2022-08-25T13:57:16.220Z,31.95
2022-08-25T13:59:55.532Z,31.80
2022-08-25T14:02:44.532Z,31.85
2022-08-25T14:05:18.731Z,31.81
2022-08-25T14:08:15.785Z,31.87
2022-08-25T14:10:48.461Z,31.89
2022-08-25T14:13:34.174Z,31.91
2022-08-25T14:16:17.518Z,31.95
2022-08-25T14:18:54.575Z,32.07
2022-08-25T14:21:34.580Z,32.13
2022-08-25T14:24:07.168Z,32.05
2022-08-25T14:26:54.013Z,31.90
2022-08-25T14:29:26.700Z,31.95
2022-08-25T14:31:59.735Z,32.07
2022-08-25T14:34:36.541Z,32.03
2022-08-25T14:37:15.781Z,31.93
2022-08-25T14:39:48.962Z,32.08
2022-08-25T14:42:25.343Z,32.06
2022-08-25T14:44:59.781Z,32.10
2022-08-25T14:47:35.123Z,32.12
2022-08-25T14:50:16.666Z,32.04
2022-08-25T14:52:53.165Z,32.06
2022-08-25T14:55:32.214Z,32.11
2022-08-25T14:58:06.734Z,32.08
2022-08-25T15:00:44.615Z,32.02
2022-08-25T15:03:23.337Z,31.96
2022-08-25T15:05:56.038Z,31.90
2022-08-25T15:08:45.101Z,31.79
2022-08-25T15:11:17.439Z,31.92
2022-08-25T15:13:49.877Z,31.88
2022-08-25T15:16:35.075Z,31.73
2022-08-25T15:19:08.859Z,31.76
2022-08-25T15:21:41.173Z,31.80
2022-08-25T15:24:17.670Z,31.74
2022-08-25T15:29:30.914Z,31.95
2022-08-25T15:32:05.070Z,31.92
2022-08-25T15:34:41.852Z,31.83
2022-08-25T15:37:20.402Z,31.70
2022-08-25T15:39:55.292Z,31.65
2022-08-25T15:42:31.783Z,31.66
2022-08-25T15:45:05.231Z,31.62
2022-08-25T15:47:39.152Z,31.62
2022-08-25T15:50:17.533Z,31.55
2022-08-25T15:52:52.189Z,31.74
2022-08-25T15:55:26.743Z,31.81
2022-08-25T15:58:01.841Z,31.73
2022-08-25T16:00:36.578Z,31.71
2022-08-25T16:03:09.774Z,31.56
2022-08-25T16:05:47.936Z,31.51
2022-08-25T16:08:20.128Z,31.52
2022-08-25T16:10:51.878Z,31.50
2022-08-25T16:13:23.905Z,31.38
2022-08-25T16:15:56.515Z,31.34
2022-08-25T16:18:28.096Z,31.32
2022-08-25T16:20:59.836Z,31.35
2022-08-25T16:23:31.215Z,31.36
2022-08-25T16:26:09.185Z,31.38
2022-08-25T16:28:43.743Z,31.29
2022-08-25T16:31:17.256Z,31.26
2022-08-25T16:33:49.118Z,31.29
2022-08-25T16:36:22.249Z,31.25
2022-08-25T16:38:54.535Z,31.16
2022-08-25T16:41:34.155Z,31.18
2022-08-25T16:44:11.183Z,31.15
2022-08-25T16:46:44.213Z,31.04
2022-08-25T16:49:17.098Z,30.90
2022-08-25T16:51:48.501Z,30.79
2022-08-25T16:54:45.793Z,30.72
2022-08-25T16:57:17.284Z,30.70
2022-08-25T16:59:49.489Z,30.62
2022-08-25T17:02:21.646Z,30.56
2022-08-25T17:04:53.411Z,30.73
2022-08-25T17:07:26.992Z,30.66
2022-08-25T17:09:59.176Z,30.43
2022-08-25T17:12:32.183Z,30.21
2022-08-25T17:15:06.146Z,30.10
2022-08-25T17:17:37.802Z,30.15
2022-08-25T17:20:10.527Z,30.29
2022-08-25T17:22:43.769Z,30.13
2022-08-25T17:25:15.229Z,29.94
2022-08-25T17:27:46.739Z,29.75
2022-08-25T17:30:19.004Z,29.60
2022-08-25T17:32:51.057Z,29.41
2022-08-25T17:35:23.266Z,29.31
2022-08-25T17:37:55.039Z,29.33
2022-08-25T17:40:27.072Z,29.35
2022-08-25T17:42:58.571Z,29.43
2022-08-25T17:45:31.535Z,29.36
2022-08-25T17:48:03.112Z,29.09
2022-08-25T17:50:36.343Z,28.86
2022-08-25T17:53:09.301Z,28.78
2022-08-25T17:55:43.173Z,28.73
2022-08-25T17:58:17.518Z,28.65
2022-08-25T18:00:49.642Z,28.59
2022-08-25T18:03:21.119Z,28.35
2022-08-25T18:05:53.405Z,28.14
2022-08-25T18:08:32.348Z,28.07
2022-08-25T18:11:08.559Z,28.07
2022-08-25T18:13:40.074Z,28.09
2022-08-25T18:16:14.659Z,27.97
2022-08-25T18:18:46.204Z,27.84
2022-08-25T18:21:20.777Z,27.73
2022-08-25T18:23:56.311Z,27.67
2022-08-25T18:26:29.529Z,27.59
2022-08-25T18:29:03.407Z,27.46
2022-08-25T18:31:33.984Z,27.43
2022-08-25T18:34:11.274Z,27.27
2022-08-25T18:36:42.702Z,27.13
2022-08-25T18:39:34.905Z,27.11
2022-08-25T18:42:08.826Z,27.05
2022-08-25T18:44:43.766Z,26.99
2022-08-25T18:47:18.601Z,26.88
2022-08-25T18:49:53.240Z,26.79
2022-08-25T18:52:24.779Z,26.77
2022-08-25T18:54:58.907Z,26.70
2022-08-25T18:57:31.894Z,26.66
2022-08-25T19:00:06.622Z,26.61
2022-08-25T19:02:38.172Z,26.58
2022-08-25T19:05:10.804Z,26.51
2022-08-25T19:07:42.731Z,26.44
2022-08-25T19:10:14.498Z,26.45
2022-08-25T19:12:46.434Z,26.54
2022-08-25T19:15:18.425Z,26.40
2022-08-25T19:17:57.700Z,26.43
2022-08-25T19:20:31.088Z,26.35
2022-08-25T19:23:03.861Z,26.10
2022-08-25T19:25:41.554Z,26.06
2022-08-25T19:28:14.641Z,26.07
2022-08-25T19:30:50.500Z,25.98
2022-08-25T19:33:43.928Z,25.85
2022-08-25T19:36:15.211Z,25.89
2022-08-25T19:38:47.135Z,25.87
2022-08-25T19:41:20.100Z,26.02
2022-08-25T19:43:56.211Z,26.13
2022-08-25T19:46:35.319Z,26.06
2022-08-25T19:49:10.607Z,25.99
2022-08-25T19:51:45.457Z,26.01
2022-08-25T19:54:22.191Z,25.82
2022-08-25T19:56:55.611Z,25.71
2022-08-25T19:59:34.170Z,25.70
2022-08-25T20:02:20.247Z,25.78
2022-08-25T20:04:55.740Z,25.70
2022-08-25T20:07:28.622Z,25.67
2022-08-25T20:10:01.617Z,25.50
2022-08-25T20:12:33.255Z,25.55
2022-08-25T20:15:07.417Z,25.50
2022-08-25T20:17:39.079Z,25.53
2022-08-25T20:20:16.880Z,25.61
2022-08-25T20:22:49.147Z,25.57
2022-08-25T20:25:24.340Z,25.51
2022-08-25T20:27:57.491Z,25.47
2022-08-25T20:30:30.973Z,25.33
2022-08-25T20:33:03.655Z,25.16
2022-08-25T20:35:35.621Z,25.16
2022-08-25T20:38:07.826Z,25.08
2022-08-25T20:40:41.709Z,25.04
2022-08-25T20:43:14.825Z,24.98
2022-08-25T20:45:46.732Z,25.02
2022-08-25T20:48:18.876Z,24.95
2022-08-25T20:50:57.338Z,24.80
2022-08-25T20:53:29.394Z,24.77
2022-08-25T20:56:02.076Z,24.83
2022-08-25T20:58:34.194Z,24.88
2022-08-25T21:01:08.568Z,24.80
2022-08-25T21:03:40.255Z,24.72
2022-08-25T21:06:14.307Z,24.66
2022-08-25T21:08:49.102Z,24.57
2022-08-25T21:11:22.272Z,24.58
2022-08-25T21:13:56.329Z,24.58
2022-08-25T21:16:28.821Z,24.61
2022-08-25T21:19:00.874Z,24.58
2022-08-25T21:21:33.860Z,24.61
2022-08-25T21:24:10.009Z,24.65
2022-08-25T21:26:48.423Z,24.60
2022-08-25T21:29:21.789Z,24.51
2022-08-25T21:31:54.313Z,24.42
2022-08-25T21:34:26.534Z,24.42
2022-08-25T21:37:00.841Z,24.32
2022-08-25T21:39:33.401Z,24.16
2022-08-25T21:42:06.430Z,24.02
2022-08-25T21:44:40.388Z,23.99
2022-08-25T21:47:11.702Z,24.07
2022-08-25T21:49:43.119Z,24.00
2022-08-25T21:52:15.630Z,23.85
2022-08-25T21:54:48.775Z,23.79
2022-08-25T21:57:23.756Z,23.77
2022-08-25T21:59:55.379Z,23.70
2022-08-25T22:02:26.590Z,23.76
2022-08-25T22:04:58.041Z,23.68
2022-08-25T22:07:34.616Z,23.53
2022-08-25T22:10:09.357Z,23.48
2022-08-25T22:12:48.665Z,23.50
2022-08-25T22:15:20.847Z,23.41
2022-08-25T22:17:52.615Z,23.30
2022-08-25T22:20:24.997Z,23.08
2022-08-25T22:23:00.577Z,23.00
2022-08-25T22:25:32.408Z,23.01
2022-08-25T22:28:18.875Z,22.96
2022-08-25T22:30:50.679Z,23.01
2022-08-25T22:33:22.263Z,23.04
2022-08-25T22:35:59.673Z,22.88
2022-08-25T22:38:31.903Z,22.77
2022-08-25T22:41:05.288Z,22.76
2022-08-25T22:43:37.235Z,22.86
2022-08-25T22:46:12.707Z,22.74
2022-08-25T22:48:44.519Z,22.62
2022-08-25T22:51:19.937Z,22.57
2022-08-25T22:53:52.035Z,22.53
2022-08-25T22:56:29.945Z,22.56
2022-08-25T22:59:03.392Z,22.61
2022-08-25T23:01:35.863Z,22.65
2022-08-25T23:04:08.737Z,22.61
2022-08-25T23:06:43.233Z,22.70
2022-08-25T23:09:14.821Z,22.69
2022-08-25T23:11:47.876Z,22.64
2022-08-25T23:14:23.116Z,22.53
2022-08-25T23:16:54.647Z,22.47
2022-08-25T23:19:28.033Z,22.50
2022-08-25T23:22:12.938Z,22.42
2022-08-25T23:24:49.501Z,22.29
2022-08-25T23:27:22.877Z,22.15
2022-08-25T23:29:54.234Z,22.03
2022-08-25T23:32:28.174Z,21.81
2022-08-25T23:35:00.445Z,21.64
2022-08-25T23:37:31.744Z,21.58
2022-08-25T23:40:03.560Z,21.49
2022-08-25T23:42:35.135Z,21.57
2022-08-25T23:45:10.362Z,21.51
2022-08-25T23:47:42.736Z,21.49
2022-08-25T23:50:14.651Z,21.47
2022-08-25T23:52:46.048Z,21.37
2022-08-25T23:55:17.730Z,21.18
2022-08-25T23:57:51.593Z,21.21
